Cumberland, Iowa
Current Conditions -  °F | °C
As of 3:15 AM on Monday 22 Dec 2014 (Local Time) from KAIO Reporting Station
Haze Haze  
Wind Chill: 33°   Ceiling: 500
Heat Index: 41°   Visibility: 3mi
Dew Point: 41°   Wind: 14mph
Humidity: 100%   Direction: 160°SSE
Pressure: 29.62"   Gusts: NA
Location:  41.27°N, 94.87°W
Report Text: KAIO 220915Z AUTO 16012KT 3SM BR OVC005 05/05 A2962 RMK AO2
Loading
Personal Weather Stations






























Interactive Weather Map New forecast layout! Learn more

10-Day Weather Forecast

Advertisements
Track Severe Weather on mobile